VVCL weather

Cam Ly Airport
Lam Dong Province, Vietnam

Public forecast

Using degrees Celsius for public forecast. Weather courtesy of forecast.io.

METAR (pilot weather report)

Closest report is Cam Ranh Airport, 47.5 nm (88.1 km) E. Retrieved 2019/04/21 09:30 UTC (14 minutes ago):

VVCR 210930Z 18013KT 9999 FEW017 33/24 Q1005 NOSIG

TAF (pilot weather forecast)

Closest forecast is Cam Ranh Airport, 47.5 nm (88.1 km) E. Retrieved 2019/04/21 06:00 UTC (4 hours ago):

TAF VVCI 210500Z 2106/2206 12008KT 9999 SCT020= TAF VVCR 210500Z 2106/2206 19010KT 9999 SCT017